sensor_id;sensor_type;location;lat;lon;timestamp;P1;durP1;ratioP1;P2;durP2;ratioP2
69534;SDS011;56754;51.568;5.048;2023-02-24T00:00:34;11.30;;;2.43;;
69534;SDS011;56754;51.568;5.048;2023-02-24T00:03:03;16.57;;;2.90;;
69534;SDS011;56754;51.568;5.048;2023-02-24T00:05:28;10.85;;;2.28;;
69534;SDS011;56754;51.568;5.048;2023-02-24T00:07:54;10.73;;;2.27;;
69534;SDS011;56754;51.568;5.048;2023-02-24T00:10:19;8.43;;;1.97;;
69534;SDS011;56754;51.568;5.048;2023-02-24T00:12:44;8.97;;;2.03;;
69534;SDS011;56754;51.568;5.048;2023-02-24T00:15:10;10.60;;;2.47;;
69534;SDS011;56754;51.568;5.048;2023-02-24T00:17:35;10.10;;;1.80;;
69534;SDS011;56754;51.568;5.048;2023-02-24T00:20:00;15.70;;;2.10;;
69534;SDS011;56754;51.568;5.048;2023-02-24T00:22:26;11.70;;;2.00;;
69534;SDS011;56754;51.568;5.048;2023-02-24T00:24:53;11.77;;;2.38;;
69534;SDS011;56754;51.568;5.048;2023-02-24T00:27:19;11.73;;;2.30;;
69534;SDS011;56754;51.568;5.048;2023-02-24T00:29:44;11.03;;;2.30;;
69534;SDS011;56754;51.568;5.048;2023-02-24T00:32:10;11.53;;;2.23;;
69534;SDS011;56754;51.568;5.048;2023-02-24T00:34:35;12.10;;;2.30;;
69534;SDS011;56754;51.568;5.048;2023-02-24T00:37:01;10.43;;;2.17;;
69534;SDS011;56754;51.568;5.048;2023-02-24T00:39:27;10.18;;;2.22;;
69534;SDS011;56754;51.568;5.048;2023-02-24T00:41:53;13.13;;;2.13;;
69534;SDS011;56754;51.568;5.048;2023-02-24T00:44:18;11.75;;;1.95;;
69534;SDS011;56754;51.568;5.048;2023-02-24T00:46:45;13.47;;;2.17;;
69534;SDS011;56754;51.568;5.048;2023-02-24T00:49:11;10.75;;;1.77;;
69534;SDS011;56754;51.568;5.048;2023-02-24T00:51:40;10.85;;;1.88;;
69534;SDS011;56754;51.568;5.048;2023-02-24T00:54:06;10.00;;;1.77;;
69534;SDS011;56754;51.568;5.048;2023-02-24T00:56:32;10.10;;;2.10;;
69534;SDS011;56754;51.568;5.048;2023-02-24T00:58:58;10.13;;;2.15;;
69534;SDS011;56754;51.568;5.048;2023-02-24T01:01:26;8.85;;;1.70;;
69534;SDS011;56754;51.568;5.048;2023-02-24T01:03:53;12.73;;;1.90;;
69534;SDS011;56754;51.568;5.048;2023-02-24T01:06:19;11.27;;;1.90;;
69534;SDS011;56754;51.568;5.048;2023-02-24T01:08:49;9.87;;;1.80;;
69534;SDS011;56754;51.568;5.048;2023-02-24T01:11:17;12.07;;;1.92;;
69534;SDS011;56754;51.568;5.048;2023-02-24T01:13:46;11.02;;;2.03;;
69534;SDS011;56754;51.568;5.048;2023-02-24T01:16:11;10.55;;;1.90;;
69534;SDS011;56754;51.568;5.048;2023-02-24T01:18:37;11.63;;;1.77;;
69534;SDS011;56754;51.568;5.048;2023-02-24T01:21:02;10.50;;;2.00;;
69534;SDS011;56754;51.568;5.048;2023-02-24T01:23:28;9.23;;;1.97;;
69534;SDS011;56754;51.568;5.048;2023-02-24T01:25:53;8.03;;;1.67;;
69534;SDS011;56754;51.568;5.048;2023-02-24T01:28:18;8.03;;;1.90;;
69534;SDS011;56754;51.568;5.048;2023-02-24T01:30:43;10.73;;;1.83;;
69534;SDS011;56754;51.568;5.048;2023-02-24T01:33:09;11.50;;;2.30;;
69534;SDS011;56754;51.568;5.048;2023-02-24T01:35:35;8.30;;;1.98;;
69534;SDS011;56754;51.568;5.048;2023-02-24T01:38:00;6.97;;;1.70;;
69534;SDS011;56754;51.568;5.048;2023-02-24T01:40:25;9.03;;;1.67;;
69534;SDS011;56754;51.568;5.048;2023-02-24T01:42:51;9.80;;;1.60;;
69534;SDS011;56754;51.568;5.048;2023-02-24T01:45:20;9.07;;;1.40;;
69534;SDS011;56754;51.568;5.048;2023-02-24T01:47:48;8.45;;;1.65;;
69534;SDS011;56754;51.568;5.048;2023-02-24T01:50:15;7.65;;;1.65;;
69534;SDS011;56754;51.568;5.048;2023-02-24T01:52:45;8.07;;;1.92;;
69534;SDS011;56754;51.568;5.048;2023-02-24T01:55:19;12.93;;;1.80;;
69534;SDS011;56754;51.568;5.048;2023-02-24T01:57:47;11.20;;;1.67;;
69534;SDS011;56754;51.568;5.048;2023-02-24T02:00:16;10.98;;;1.85;;
69534;SDS011;56754;51.568;5.048;2023-02-24T02:02:43;7.88;;;1.70;;
69534;SDS011;56754;51.568;5.048;2023-02-24T02:05:12;8.55;;;1.80;;
69534;SDS011;56754;51.568;5.048;2023-02-24T02:07:37;8.93;;;2.13;;
69534;SDS011;56754;51.568;5.048;2023-02-24T02:10:04;8.13;;;1.67;;
69534;SDS011;56754;51.568;5.048;2023-02-24T02:12:32;9.75;;;2.17;;
69534;SDS011;56754;51.568;5.048;2023-02-24T02:15:00;7.53;;;1.70;;
69534;SDS011;56754;51.568;5.048;2023-02-24T02:25:39;7.80;;;1.55;;
69534;SDS011;56754;51.568;5.048;2023-02-24T02:30:58;5.78;;;1.27;;
69534;SDS011;56754;51.568;5.048;2023-02-24T02:44:23;7.85;;;1.30;;
69534;SDS011;56754;51.568;5.048;2023-02-24T02:46:57;7.80;;;1.63;;
69534;SDS011;56754;51.568;5.048;2023-02-24T02:49:39;7.63;;;1.40;;
69534;SDS011;56754;51.568;5.048;2023-02-24T02:52:09;6.00;;;1.25;;
69534;SDS011;56754;51.568;5.048;2023-02-24T02:57:08;10.90;;;1.73;;
69534;SDS011;56754;51.568;5.048;2023-02-24T02:59:40;7.97;;;1.15;;
69534;SDS011;56754;51.568;5.048;2023-02-24T03:02:09;9.15;;;1.50;;
69534;SDS011;56754;51.568;5.048;2023-02-24T03:04:35;8.17;;;1.30;;
69534;SDS011;56754;51.568;5.048;2023-02-24T03:07:01;7.80;;;1.20;;
69534;SDS011;56754;51.568;5.048;2023-02-24T03:09:33;7.63;;;1.27;;
69534;SDS011;56754;51.568;5.048;2023-02-24T03:12:10;9.77;;;1.83;;
69534;SDS011;56754;51.568;5.048;2023-02-24T03:14:41;8.23;;;1.40;;
69534;SDS011;56754;51.568;5.048;2023-02-24T03:17:13;9.75;;;1.50;;
69534;SDS011;56754;51.568;5.048;2023-02-24T03:19:42;9.13;;;1.50;;
69534;SDS011;56754;51.568;5.048;2023-02-24T03:22:14;8.13;;;1.27;;
69534;SDS011;56754;51.568;5.048;2023-02-24T03:24:45;7.68;;;1.75;;
69534;SDS011;56754;51.568;5.048;2023-02-24T03:27:15;8.77;;;1.27;;
69534;SDS011;56754;51.568;5.048;2023-02-24T03:30:04;8.35;;;1.38;;
69534;SDS011;56754;51.568;5.048;2023-02-24T03:35:32;9.15;;;1.38;;
69534;SDS011;56754;51.568;5.048;2023-02-24T03:38:02;9.82;;;1.17;;
69534;SDS011;56754;51.568;5.048;2023-02-24T03:40:28;7.63;;;1.30;;
69534;SDS011;56754;51.568;5.048;2023-02-24T03:42:56;8.15;;;1.42;;
69534;SDS011;56754;51.568;5.048;2023-02-24T03:45:28;7.00;;;1.20;;
69534;SDS011;56754;51.568;5.048;2023-02-24T03:47:53;9.30;;;1.50;;
69534;SDS011;56754;51.568;5.048;2023-02-24T03:50:19;6.93;;;1.20;;
69534;SDS011;56754;51.568;5.048;2023-02-24T03:52:47;5.30;;;0.85;;
69534;SDS011;56754;51.568;5.048;2023-02-24T03:55:50;10.40;;;1.60;;
69534;SDS011;56754;51.568;5.048;2023-02-24T03:58:54;7.28;;;1.25;;
69534;SDS011;56754;51.568;5.048;2023-02-24T04:07:30;8.05;;;1.30;;
69534;SDS011;56754;51.568;5.048;2023-02-24T04:10:13;6.90;;;1.10;;
69534;SDS011;56754;51.568;5.048;2023-02-24T04:15:30;6.72;;;1.30;;
69534;SDS011;56754;51.568;5.048;2023-02-24T04:18:01;8.50;;;1.23;;
69534;SDS011;56754;51.568;5.048;2023-02-24T04:20:32;7.88;;;1.40;;
69534;SDS011;56754;51.568;5.048;2023-02-24T04:23:14;7.70;;;1.10;;
69534;SDS011;56754;51.568;5.048;2023-02-24T04:25:43;10.43;;;1.73;;
69534;SDS011;56754;51.568;5.048;2023-02-24T04:28:11;5.28;;;1.00;;
69534;SDS011;56754;51.568;5.048;2023-02-24T04:30:39;8.10;;;1.30;;
69534;SDS011;56754;51.568;5.048;2023-02-24T04:33:06;5.50;;;1.05;;
69534;SDS011;56754;51.568;5.048;2023-02-24T04:35:32;8.03;;;1.33;;
69534;SDS011;56754;51.568;5.048;2023-02-24T04:37:58;9.55;;;1.60;;
69534;SDS011;56754;51.568;5.048;2023-02-24T04:40:23;7.75;;;1.20;;
69534;SDS011;56754;51.568;5.048;2023-02-24T04:42:50;8.70;;;1.50;;
69534;SDS011;56754;51.568;5.048;2023-02-24T04:45:18;9.35;;;1.30;;
69534;SDS011;56754;51.568;5.048;2023-02-24T04:47:45;7.22;;;1.52;;
69534;SDS011;56754;51.568;5.048;2023-02-24T04:50:12;8.17;;;1.47;;
69534;SDS011;56754;51.568;5.048;2023-02-24T04:52:37;9.25;;;1.30;;
69534;SDS011;56754;51.568;5.048;2023-02-24T04:55:03;7.00;;;1.10;;
69534;SDS011;56754;51.568;5.048;2023-02-24T04:57:29;10.18;;;1.30;;
69534;SDS011;56754;51.568;5.048;2023-02-24T04:59:55;8.40;;;1.27;;
69534;SDS011;56754;51.568;5.048;2023-02-24T05:02:20;8.60;;;1.20;;
69534;SDS011;56754;51.568;5.048;2023-02-24T05:04:45;7.83;;;1.70;;
69534;SDS011;56754;51.568;5.048;2023-02-24T05:07:10;8.80;;;1.17;;
69534;SDS011;56754;51.568;5.048;2023-02-24T05:09:36;8.17;;;1.30;;
69534;SDS011;56754;51.568;5.048;2023-02-24T05:12:01;9.63;;;1.40;;
69534;SDS011;56754;51.568;5.048;2023-02-24T05:14:26;9.37;;;1.00;;
69534;SDS011;56754;51.568;5.048;2023-02-24T05:16:52;9.32;;;1.40;;
69534;SDS011;56754;51.568;5.048;2023-02-24T05:19:18;6.77;;;1.10;;
69534;SDS011;56754;51.568;5.048;2023-02-24T05:21:44;7.13;;;1.30;;
69534;SDS011;56754;51.568;5.048;2023-02-24T05:24:09;10.60;;;1.30;;
69534;SDS011;56754;51.568;5.048;2023-02-24T05:26:35;9.00;;;1.20;;
69534;SDS011;56754;51.568;5.048;2023-02-24T05:29:02;6.38;;;1.13;;
69534;SDS011;56754;51.568;5.048;2023-02-24T05:31:29;6.95;;;1.25;;
69534;SDS011;56754;51.568;5.048;2023-02-24T05:33:56;9.90;;;1.70;;
69534;SDS011;56754;51.568;5.048;2023-02-24T05:36:24;7.30;;;1.83;;
69534;SDS011;56754;51.568;5.048;2023-02-24T05:38:52;6.82;;;1.55;;
69534;SDS011;56754;51.568;5.048;2023-02-24T05:41:19;8.25;;;1.30;;
69534;SDS011;56754;51.568;5.048;2023-02-24T05:43:49;6.70;;;1.20;;
69534;SDS011;56754;51.568;5.048;2023-02-24T05:46:18;7.88;;;1.48;;
69534;SDS011;56754;51.568;5.048;2023-02-24T05:48:45;6.60;;;1.30;;
69534;SDS011;56754;51.568;5.048;2023-02-24T05:51:14;9.48;;;1.40;;
69534;SDS011;56754;51.568;5.048;2023-02-24T05:53:39;8.70;;;1.20;;
69534;SDS011;56754;51.568;5.048;2023-02-24T05:56:05;8.07;;;1.40;;
69534;SDS011;56754;51.568;5.048;2023-02-24T05:58:30;10.40;;;1.47;;
69534;SDS011;56754;51.568;5.048;2023-02-24T06:00:55;7.03;;;1.10;;
69534;SDS011;56754;51.568;5.048;2023-02-24T06:03:20;9.07;;;1.60;;
69534;SDS011;56754;51.568;5.048;2023-02-24T06:05:52;5.40;;;1.30;;
69534;SDS011;56754;51.568;5.048;2023-02-24T06:08:17;8.73;;;1.55;;
69534;SDS011;56754;51.568;5.048;2023-02-24T06:10:43;7.60;;;1.10;;
69534;SDS011;56754;51.568;5.048;2023-02-24T06:13:08;8.83;;;1.27;;
69534;SDS011;56754;51.568;5.048;2023-02-24T06:15:33;7.40;;;1.50;;
69534;SDS011;56754;51.568;5.048;2023-02-24T06:18:01;8.93;;;1.67;;
69534;SDS011;56754;51.568;5.048;2023-02-24T06:20:28;7.93;;;1.70;;
69534;SDS011;56754;51.568;5.048;2023-02-24T06:22:54;10.23;;;2.30;;
69534;SDS011;56754;51.568;5.048;2023-02-24T06:25:20;10.07;;;1.85;;
69534;SDS011;56754;51.568;5.048;2023-02-24T06:27:48;8.43;;;1.50;;
69534;SDS011;56754;51.568;5.048;2023-02-24T06:30:14;9.25;;;1.73;;
69534;SDS011;56754;51.568;5.048;2023-02-24T06:32:39;8.43;;;1.40;;
69534;SDS011;56754;51.568;5.048;2023-02-24T06:35:05;8.20;;;1.33;;
69534;SDS011;56754;51.568;5.048;2023-02-24T06:37:30;7.25;;;1.27;;
69534;SDS011;56754;51.568;5.048;2023-02-24T06:39:55;8.27;;;1.10;;
69534;SDS011;56754;51.568;5.048;2023-02-24T06:42:21;7.47;;;1.20;;
69534;SDS011;56754;51.568;5.048;2023-02-24T06:44:46;11.57;;;1.50;;
69534;SDS011;56754;51.568;5.048;2023-02-24T06:47:12;7.33;;;1.10;;
69534;SDS011;56754;51.568;5.048;2023-02-24T06:49:38;6.07;;;1.05;;
69534;SDS011;56754;51.568;5.048;2023-02-24T06:52:03;9.87;;;1.40;;
69534;SDS011;56754;51.568;5.048;2023-02-24T06:54:29;8.98;;;1.20;;
69534;SDS011;56754;51.568;5.048;2023-02-24T06:56:55;5.77;;;1.20;;
69534;SDS011;56754;51.568;5.048;2023-02-24T06:59:22;8.75;;;1.67;;
69534;SDS011;56754;51.568;5.048;2023-02-24T07:01:48;5.55;;;1.23;;
69534;SDS011;56754;51.568;5.048;2023-02-24T07:04:14;5.17;;;0.90;;
69534;SDS011;56754;51.568;5.048;2023-02-24T07:06:41;7.75;;;1.40;;
69534;SDS011;56754;51.568;5.048;2023-02-24T07:09:19;7.25;;;1.13;;
69534;SDS011;56754;51.568;5.048;2023-02-24T07:11:49;7.35;;;1.10;;
69534;SDS011;56754;51.568;5.048;2023-02-24T07:14:16;7.50;;;1.20;;
69534;SDS011;56754;51.568;5.048;2023-02-24T07:16:46;8.13;;;0.98;;
69534;SDS011;56754;51.568;5.048;2023-02-24T07:19:12;7.40;;;1.15;;
69534;SDS011;56754;51.568;5.048;2023-02-24T07:21:43;6.97;;;1.10;;
69534;SDS011;56754;51.568;5.048;2023-02-24T07:24:09;12.20;;;1.70;;
69534;SDS011;56754;51.568;5.048;2023-02-24T07:26:35;8.07;;;1.30;;
69534;SDS011;56754;51.568;5.048;2023-02-24T07:29:00;8.53;;;1.10;;
69534;SDS011;56754;51.568;5.048;2023-02-24T07:31:26;8.35;;;1.20;;
69534;SDS011;56754;51.568;5.048;2023-02-24T07:33:52;7.17;;;1.00;;
69534;SDS011;56754;51.568;5.048;2023-02-24T07:36:18;9.57;;;1.05;;
69534;SDS011;56754;51.568;5.048;2023-02-24T07:38:44;8.73;;;1.00;;
69534;SDS011;56754;51.568;5.048;2023-02-24T07:41:10;6.07;;;0.87;;
69534;SDS011;56754;51.568;5.048;2023-02-24T07:43:38;9.23;;;1.00;;
69534;SDS011;56754;51.568;5.048;2023-02-24T07:46:11;7.18;;;0.73;;
69534;SDS011;56754;51.568;5.048;2023-02-24T07:48:40;7.85;;;1.23;;
69534;SDS011;56754;51.568;5.048;2023-02-24T07:51:07;11.77;;;1.10;;
69534;SDS011;56754;51.568;5.048;2023-02-24T07:53:33;7.60;;;1.00;;
69534;SDS011;56754;51.568;5.048;2023-02-24T07:55:59;11.63;;;0.90;;
69534;SDS011;56754;51.568;5.048;2023-02-24T07:58:24;7.47;;;1.00;;
69534;SDS011;56754;51.568;5.048;2023-02-24T08:00:49;9.83;;;1.60;;
69534;SDS011;56754;51.568;5.048;2023-02-24T08:03:15;10.93;;;0.90;;
69534;SDS011;56754;51.568;5.048;2023-02-24T08:05:40;6.33;;;1.00;;
69534;SDS011;56754;51.568;5.048;2023-02-24T08:08:05;7.80;;;0.80;;
69534;SDS011;56754;51.568;5.048;2023-02-24T08:10:31;7.82;;;0.73;;
69534;SDS011;56754;51.568;5.048;2023-02-24T08:12:56;14.67;;;0.80;;
69534;SDS011;56754;51.568;5.048;2023-02-24T08:15:25;9.77;;;1.47;;
69534;SDS011;56754;51.568;5.048;2023-02-24T08:17:51;11.07;;;1.77;;
69534;SDS011;56754;51.568;5.048;2023-02-24T08:20:18;8.97;;;1.30;;
69534;SDS011;56754;51.568;5.048;2023-02-24T08:22:45;9.95;;;1.02;;
69534;SDS011;56754;51.568;5.048;2023-02-24T08:25:13;8.23;;;1.60;;
69534;SDS011;56754;51.568;5.048;2023-02-24T08:27:40;7.40;;;1.35;;
69534;SDS011;56754;51.568;5.048;2023-02-24T08:30:05;7.93;;;0.93;;
69534;SDS011;56754;51.568;5.048;2023-02-24T08:32:36;8.55;;;1.15;;
69534;SDS011;56754;51.568;5.048;2023-02-24T08:35:08;4.87;;;0.73;;
69534;SDS011;56754;51.568;5.048;2023-02-24T08:37:35;7.07;;;1.05;;
69534;SDS011;56754;51.568;5.048;2023-02-24T08:40:00;8.80;;;0.90;;
69534;SDS011;56754;51.568;5.048;2023-02-24T08:42:26;5.60;;;0.70;;
69534;SDS011;56754;51.568;5.048;2023-02-24T08:44:51;9.27;;;0.87;;
69534;SDS011;56754;51.568;5.048;2023-02-24T08:47:16;8.13;;;0.97;;
69534;SDS011;56754;51.568;5.048;2023-02-24T08:49:41;9.27;;;0.93;;
69534;SDS011;56754;51.568;5.048;2023-02-24T08:52:07;8.83;;;1.00;;
69534;SDS011;56754;51.568;5.048;2023-02-24T08:54:32;6.97;;;0.93;;
69534;SDS011;56754;51.568;5.048;2023-02-24T08:56:58;8.30;;;0.90;;
69534;SDS011;56754;51.568;5.048;2023-02-24T08:59:25;7.05;;;1.08;;
69534;SDS011;56754;51.568;5.048;2023-02-24T09:01:50;6.60;;;0.90;;
69534;SDS011;56754;51.568;5.048;2023-02-24T09:04:16;8.87;;;1.20;;
69534;SDS011;56754;51.568;5.048;2023-02-24T09:06:45;7.30;;;1.10;;
69534;SDS011;56754;51.568;5.048;2023-02-24T09:09:18;6.78;;;1.00;;
69534;SDS011;56754;51.568;5.048;2023-02-24T09:11:45;5.20;;;1.13;;
69534;SDS011;56754;51.568;5.048;2023-02-24T09:14:13;7.93;;;0.95;;
69534;SDS011;56754;51.568;5.048;2023-02-24T09:16:40;7.68;;;1.20;;
69534;SDS011;56754;51.568;5.048;2023-02-24T09:19:05;5.03;;;0.93;;
69534;SDS011;56754;51.568;5.048;2023-02-24T09:21:30;7.60;;;1.10;;
69534;SDS011;56754;51.568;5.048;2023-02-24T09:23:56;8.57;;;1.30;;
69534;SDS011;56754;51.568;5.048;2023-02-24T09:26:21;6.13;;;0.87;;
69534;SDS011;56754;51.568;5.048;2023-02-24T09:28:46;6.93;;;0.87;;
69534;SDS011;56754;51.568;5.048;2023-02-24T09:31:12;8.73;;;1.17;;
69534;SDS011;56754;51.568;5.048;2023-02-24T09:33:38;5.50;;;0.90;;
69534;SDS011;56754;51.568;5.048;2023-02-24T09:36:04;5.57;;;0.85;;
69534;SDS011;56754;51.568;5.048;2023-02-24T09:38:30;4.43;;;0.70;;
69534;SDS011;56754;51.568;5.048;2023-02-24T09:40:55;4.90;;;0.90;;
69534;SDS011;56754;51.568;5.048;2023-02-24T09:43:21;7.50;;;0.83;;
69534;SDS011;56754;51.568;5.048;2023-02-24T09:45:59;5.43;;;0.82;;
69534;SDS011;56754;51.568;5.048;2023-02-24T09:48:32;7.57;;;1.00;;
69534;SDS011;56754;51.568;5.048;2023-02-24T09:51:03;7.13;;;0.93;;
69534;SDS011;56754;51.568;5.048;2023-02-24T09:53:29;6.55;;;0.90;;
69534;SDS011;56754;51.568;5.048;2023-02-24T09:55:59;6.27;;;1.03;;
69534;SDS011;56754;51.568;5.048;2023-02-24T09:58:40;5.78;;;0.95;;
69534;SDS011;56754;51.568;5.048;2023-02-24T10:07:37;6.30;;;0.93;;
69534;SDS011;56754;51.568;5.048;2023-02-24T10:10:28;6.57;;;0.90;;
69534;SDS011;56754;51.568;5.048;2023-02-24T10:15:31;5.57;;;0.95;;
69534;SDS011;56754;51.568;5.048;2023-02-24T10:17:59;5.65;;;0.93;;
69534;SDS011;56754;51.568;5.048;2023-02-24T10:20:42;7.38;;;1.00;;
69534;SDS011;56754;51.568;5.048;2023-02-24T10:23:17;9.63;;;1.07;;
69534;SDS011;56754;51.568;5.048;2023-02-24T10:25:52;8.05;;;0.80;;
69534;SDS011;56754;51.568;5.048;2023-02-24T10:31:19;7.95;;;1.20;;
69534;SDS011;56754;51.568;5.048;2023-02-24T10:33:54;5.60;;;1.23;;
69534;SDS011;56754;51.568;5.048;2023-02-24T10:36:23;8.00;;;1.20;;
69534;SDS011;56754;51.568;5.048;2023-02-24T10:38:49;8.98;;;1.25;;
69534;SDS011;56754;51.568;5.048;2023-02-24T10:41:14;7.43;;;1.20;;
69534;SDS011;56754;51.568;5.048;2023-02-24T10:43:51;6.70;;;1.30;;
69534;SDS011;56754;51.568;5.048;2023-02-24T10:46:26;7.82;;;1.13;;
69534;SDS011;56754;51.568;5.048;2023-02-24T10:48:55;5.57;;;1.00;;
69534;SDS011;56754;51.568;5.048;2023-02-24T10:51:22;5.30;;;1.00;;
69534;SDS011;56754;51.568;5.048;2023-02-24T10:53:48;5.15;;;0.85;;
69534;SDS011;56754;51.568;5.048;2023-02-24T10:56:14;6.63;;;0.90;;
69534;SDS011;56754;51.568;5.048;2023-02-24T10:58:41;6.97;;;1.00;;
69534;SDS011;56754;51.568;5.048;2023-02-24T11:01:10;7.93;;;1.45;;
69534;SDS011;56754;51.568;5.048;2023-02-24T11:03:46;5.28;;;1.13;;
69534;SDS011;56754;51.568;5.048;2023-02-24T11:06:25;10.32;;;1.17;;
69534;SDS011;56754;51.568;5.048;2023-02-24T11:08:56;6.10;;;1.17;;
69534;SDS011;56754;51.568;5.048;2023-02-24T11:11:23;6.72;;;1.40;;
69534;SDS011;56754;51.568;5.048;2023-02-24T11:13:55;8.52;;;1.40;;
69534;SDS011;56754;51.568;5.048;2023-02-24T11:16:22;8.43;;;1.23;;
69534;SDS011;56754;51.568;5.048;2023-02-24T11:18:47;8.27;;;1.50;;
69534;SDS011;56754;51.568;5.048;2023-02-24T11:21:13;7.30;;;1.20;;
69534;SDS011;56754;51.568;5.048;2023-02-24T11:23:44;7.05;;;1.20;;
69534;SDS011;56754;51.568;5.048;2023-02-24T11:26:14;5.77;;;1.17;;
69534;SDS011;56754;51.568;5.048;2023-02-24T11:28:52;8.93;;;1.30;;
69534;SDS011;56754;51.568;5.048;2023-02-24T11:34:48;9.18;;;1.50;;
69534;SDS011;56754;51.568;5.048;2023-02-24T11:42:59;8.60;;;1.45;;
69534;SDS011;56754;51.568;5.048;2023-02-24T11:48:17;8.90;;;1.30;;
69534;SDS011;56754;51.568;5.048;2023-02-24T11:50:49;8.20;;;1.45;;
69534;SDS011;56754;51.568;5.048;2023-02-24T11:53:52;6.90;;;1.50;;
69534;SDS011;56754;51.568;5.048;2023-02-24T11:56:24;4.65;;;0.90;;
69534;SDS011;56754;51.568;5.048;2023-02-24T11:58:58;6.93;;;1.23;;
69534;SDS011;56754;51.568;5.048;2023-02-24T12:01:35;9.30;;;1.35;;
69534;SDS011;56754;51.568;5.048;2023-02-24T12:09:18;8.98;;;1.30;;
69534;SDS011;56754;51.568;5.048;2023-02-24T12:14:35;9.68;;;1.50;;
69534;SDS011;56754;51.568;5.048;2023-02-24T12:19:59;5.73;;;1.23;;
69534;SDS011;56754;51.568;5.048;2023-02-24T12:22:25;7.43;;;1.45;;
69534;SDS011;56754;51.568;5.048;2023-02-24T12:24:57;7.78;;;1.10;;
69534;SDS011;56754;51.568;5.048;2023-02-24T12:30:21;10.02;;;1.42;;
69534;SDS011;56754;51.568;5.048;2023-02-24T12:36:16;7.77;;;1.07;;
69534;SDS011;56754;51.568;5.048;2023-02-24T12:39:13;6.43;;;1.23;;
69534;SDS011;56754;51.568;5.048;2023-02-24T12:42:06;8.68;;;1.55;;
69534;SDS011;56754;51.568;5.048;2023-02-24T12:55:43;6.72;;;1.30;;
69534;SDS011;56754;51.568;5.048;2023-02-24T12:58:36;6.13;;;1.20;;
69534;SDS011;56754;51.568;5.048;2023-02-24T13:01:09;5.20;;;1.13;;
69534;SDS011;56754;51.568;5.048;2023-02-24T13:06:43;6.03;;;1.58;;
69534;SDS011;56754;51.568;5.048;2023-02-24T13:09:20;5.03;;;1.10;;
69534;SDS011;56754;51.568;5.048;2023-02-24T13:11:51;4.55;;;0.90;;
69534;SDS011;56754;51.568;5.048;2023-02-24T13:16:48;4.60;;;0.83;;
69534;SDS011;56754;51.568;5.048;2023-02-24T13:19:26;3.65;;;1.02;;
69534;SDS011;56754;51.568;5.048;2023-02-24T13:22:04;5.80;;;1.40;;
69534;SDS011;56754;51.568;5.048;2023-02-24T13:24:39;5.47;;;1.20;;
69534;SDS011;56754;51.568;5.048;2023-02-24T13:29:44;5.22;;;1.63;;
69534;SDS011;56754;51.568;5.048;2023-02-24T13:32:26;4.72;;;1.20;;
69534;SDS011;56754;51.568;5.048;2023-02-24T13:37:42;4.75;;;1.33;;
69534;SDS011;56754;51.568;5.048;2023-02-24T13:42:40;4.88;;;1.38;;
69534;SDS011;56754;51.568;5.048;2023-02-24T13:50:02;6.37;;;1.83;;
69534;SDS011;56754;51.568;5.048;2023-02-24T13:52:34;5.57;;;1.57;;
69534;SDS011;56754;51.568;5.048;2023-02-24T14:03:10;5.40;;;1.38;;
69534;SDS011;56754;51.568;5.048;2023-02-24T14:05:40;5.93;;;1.63;;
69534;SDS011;56754;51.568;5.048;2023-02-24T14:08:06;4.88;;;1.23;;
69534;SDS011;56754;51.568;5.048;2023-02-24T14:10:31;4.37;;;1.67;;
69534;SDS011;56754;51.568;5.048;2023-02-24T14:13:15;5.43;;;1.60;;
69534;SDS011;56754;51.568;5.048;2023-02-24T14:15:44;6.05;;;1.73;;
69534;SDS011;56754;51.568;5.048;2023-02-24T14:18:17;5.83;;;1.60;;
69534;SDS011;56754;51.568;5.048;2023-02-24T14:20:49;4.78;;;1.60;;
69534;SDS011;56754;51.568;5.048;2023-02-24T14:25:44;6.15;;;1.50;;
69534;SDS011;56754;51.568;5.048;2023-02-24T14:28:14;5.63;;;1.73;;
69534;SDS011;56754;51.568;5.048;2023-02-24T14:30:45;4.55;;;1.63;;
69534;SDS011;56754;51.568;5.048;2023-02-24T14:33:30;7.55;;;2.20;;
69534;SDS011;56754;51.568;5.048;2023-02-24T14:35:58;7.22;;;1.90;;
69534;SDS011;56754;51.568;5.048;2023-02-24T14:38:45;6.50;;;2.27;;
69534;SDS011;56754;51.568;5.048;2023-02-24T14:41:20;8.13;;;2.80;;
69534;SDS011;56754;51.568;5.048;2023-02-24T14:43:48;9.55;;;2.78;;
69534;SDS011;56754;51.568;5.048;2023-02-24T14:46:14;9.98;;;2.70;;
69534;SDS011;56754;51.568;5.048;2023-02-24T14:48:40;8.53;;;2.47;;
69534;SDS011;56754;51.568;5.048;2023-02-24T14:51:06;8.57;;;1.97;;
69534;SDS011;56754;51.568;5.048;2023-02-24T14:53:36;6.20;;;1.67;;
69534;SDS011;56754;51.568;5.048;2023-02-24T14:56:07;7.20;;;1.65;;
69534;SDS011;56754;51.568;5.048;2023-02-24T14:58:39;10.40;;;1.88;;
69534;SDS011;56754;51.568;5.048;2023-02-24T15:03:50;7.63;;;1.40;;
69534;SDS011;56754;51.568;5.048;2023-02-24T15:06:24;9.60;;;2.05;;
69534;SDS011;56754;51.568;5.048;2023-02-24T15:08:56;5.68;;;1.10;;
69534;SDS011;56754;51.568;5.048;2023-02-24T15:11:26;9.82;;;1.88;;
69534;SDS011;56754;51.568;5.048;2023-02-24T15:13:53;8.70;;;1.43;;
69534;SDS011;56754;51.568;5.048;2023-02-24T15:16:25;8.07;;;1.58;;
69534;SDS011;56754;51.568;5.048;2023-02-24T15:18:57;9.95;;;1.45;;
69534;SDS011;56754;51.568;5.048;2023-02-24T15:21:30;6.75;;;1.10;;
69534;SDS011;56754;51.568;5.048;2023-02-24T15:24:02;7.32;;;0.90;;
69534;SDS011;56754;51.568;5.048;2023-02-24T15:27:30;5.23;;;0.73;;
69534;SDS011;56754;51.568;5.048;2023-02-24T15:29:40;7.65;;;0.90;;
69534;SDS011;56754;51.568;5.048;2023-02-24T15:32:12;7.90;;;1.02;;
69534;SDS011;56754;51.568;5.048;2023-02-24T15:34:43;6.25;;;1.23;;
69534;SDS011;56754;51.568;5.048;2023-02-24T15:37:15;8.27;;;1.15;;
69534;SDS011;56754;51.568;5.048;2023-02-24T15:39:42;10.60;;;1.30;;
69534;SDS011;56754;51.568;5.048;2023-02-24T15:44:39;7.25;;;1.10;;
69534;SDS011;56754;51.568;5.048;2023-02-24T15:47:23;9.63;;;1.30;;
69534;SDS011;56754;51.568;5.048;2023-02-24T15:49:50;5.28;;;0.93;;
69534;SDS011;56754;51.568;5.048;2023-02-24T15:52:19;9.30;;;1.10;;
69534;SDS011;56754;51.568;5.048;2023-02-24T15:54:48;6.72;;;0.98;;
69534;SDS011;56754;51.568;5.048;2023-02-24T15:57:15;5.60;;;0.80;;
69534;SDS011;56754;51.568;5.048;2023-02-24T15:59:42;8.43;;;1.92;;
69534;SDS011;56754;51.568;5.048;2023-02-24T16:02:10;7.00;;;0.98;;
69534;SDS011;56754;51.568;5.048;2023-02-24T16:04:37;6.30;;;0.70;;
69534;SDS011;56754;51.568;5.048;2023-02-24T16:07:02;5.23;;;0.80;;
69534;SDS011;56754;51.568;5.048;2023-02-24T16:09:30;6.47;;;0.90;;
69534;SDS011;56754;51.568;5.048;2023-02-24T16:11:58;7.63;;;0.70;;
69534;SDS011;56754;51.568;5.048;2023-02-24T16:14:26;8.03;;;0.80;;
69534;SDS011;56754;51.568;5.048;2023-02-24T16:16:51;5.90;;;0.80;;
69534;SDS011;56754;51.568;5.048;2023-02-24T16:19:16;6.68;;;0.85;;
69534;SDS011;56754;51.568;5.048;2023-02-24T16:21:42;7.33;;;0.83;;
69534;SDS011;56754;51.568;5.048;2023-02-24T16:24:08;9.33;;;0.80;;
69534;SDS011;56754;51.568;5.048;2023-02-24T16:26:37;6.88;;;0.80;;
69534;SDS011;56754;51.568;5.048;2023-02-24T16:29:04;7.00;;;0.80;;
69534;SDS011;56754;51.568;5.048;2023-02-24T16:31:30;5.72;;;0.80;;
69534;SDS011;56754;51.568;5.048;2023-02-24T16:33:56;6.47;;;0.80;;
69534;SDS011;56754;51.568;5.048;2023-02-24T16:36:22;6.38;;;0.70;;
69534;SDS011;56754;51.568;5.048;2023-02-24T16:38:48;5.53;;;0.68;;
69534;SDS011;56754;51.568;5.048;2023-02-24T16:41:14;6.83;;;0.90;;
69534;SDS011;56754;51.568;5.048;2023-02-24T16:43:39;8.60;;;0.93;;
69534;SDS011;56754;51.568;5.048;2023-02-24T16:46:05;6.53;;;1.00;;
69534;SDS011;56754;51.568;5.048;2023-02-24T16:48:36;6.95;;;0.70;;
69534;SDS011;56754;51.568;5.048;2023-02-24T16:51:04;5.35;;;1.10;;
69534;SDS011;56754;51.568;5.048;2023-02-24T16:53:31;9.75;;;1.00;;
69534;SDS011;56754;51.568;5.048;2023-02-24T16:55:57;6.77;;;0.77;;
69534;SDS011;56754;51.568;5.048;2023-02-24T16:58:22;6.23;;;0.80;;